createdAt,value
2023-05-25T00:01:05.063Z,23.10
2023-05-25T00:03:32.593Z,22.98
2023-05-25T00:06:04.013Z,23.09
2023-05-25T00:08:31.362Z,22.98
2023-05-25T00:10:58.677Z,23.08
2023-05-25T00:13:25.977Z,22.77
2023-05-25T00:15:53.280Z,22.98
2023-05-25T00:18:20.289Z,22.86
2023-05-25T00:20:47.674Z,22.92
2023-05-25T00:23:14.966Z,22.82
2023-05-25T00:25:42.565Z,22.59
2023-05-25T00:28:11.738Z,22.54
2023-05-25T00:30:38.903Z,22.69
2023-05-25T00:33:06.826Z,22.86
2023-05-25T00:35:33.867Z,22.84
2023-05-25T00:38:00.969Z,22.56
2023-05-25T00:40:28.028Z,22.60
2023-05-25T00:42:56.066Z,22.89
2023-05-25T00:45:23.557Z,22.74
2023-05-25T00:47:54.062Z,22.64
2023-05-25T00:50:37.927Z,22.84
2023-05-25T00:53:10.533Z,22.79
2023-05-25T00:56:03.021Z,22.97
2023-05-25T00:58:33.488Z,22.77
2023-05-25T01:01:01.945Z,22.75
2023-05-25T01:03:34.499Z,22.27
2023-05-25T01:06:02.722Z,22.32
2023-05-25T01:08:34.106Z,22.49
2023-05-25T01:11:03.467Z,22.37
2023-05-25T01:13:32.462Z,22.29
2023-05-25T01:15:59.731Z,22.03
2023-05-25T01:18:26.807Z,22.08
2023-05-25T01:21:18.044Z,22.27
2023-05-25T01:23:59.115Z,22.21
2023-05-25T01:26:29.994Z,22.30
2023-05-25T01:28:59.651Z,22.21
2023-05-25T01:31:27.073Z,21.88
2023-05-25T01:33:54.881Z,21.93
2023-05-25T01:36:21.928Z,21.87
2023-05-25T01:38:49.792Z,22.14
2023-05-25T01:41:17.028Z,22.08
2023-05-25T01:43:44.911Z,21.73
2023-05-25T01:46:35.610Z,22.21
2023-05-25T01:49:32.628Z,22.36
2023-05-25T01:52:31.616Z,22.33
2023-05-25T01:55:07.650Z,22.19
2023-05-25T01:57:39.880Z,21.98
2023-05-25T02:00:08.917Z,21.94
2023-05-25T02:02:48.132Z,22.06
2023-05-25T02:05:21.062Z,22.01
2023-05-25T02:07:48.234Z,21.96
2023-05-25T02:10:15.339Z,21.88
2023-05-25T02:12:42.857Z,21.75
2023-05-25T02:15:11.183Z,21.86
2023-05-25T02:17:38.487Z,21.45
2023-05-25T02:20:07.030Z,21.81
2023-05-25T02:22:37.130Z,21.84
2023-05-25T02:25:04.455Z,21.71
2023-05-25T02:27:31.495Z,21.58
2023-05-25T02:29:59.002Z,21.58
2023-05-25T02:32:29.548Z,21.59
2023-05-25T02:34:57.012Z,21.49
2023-05-25T02:37:24.118Z,21.42
2023-05-25T02:39:51.172Z,21.27
2023-05-25T02:42:18.325Z,21.52
2023-05-25T02:44:48.613Z,21.47
2023-05-25T02:47:18.032Z,21.50
2023-05-25T02:49:46.387Z,21.43
2023-05-25T02:52:14.042Z,21.35
2023-05-25T02:54:41.730Z,21.35
2023-05-25T02:57:10.411Z,21.27
2023-05-25T02:59:37.614Z,21.22
2023-05-25T03:02:04.867Z,21.31
2023-05-25T03:04:34.328Z,21.09
2023-05-25T03:07:02.076Z,21.21
2023-05-25T03:09:29.653Z,21.16
2023-05-25T03:11:56.846Z,21.17
2023-05-25T03:14:24.694Z,21.13
2023-05-25T03:16:56.599Z,21.48
2023-05-25T03:19:24.372Z,21.13
2023-05-25T03:21:51.970Z,21.19
2023-05-25T03:24:19.781Z,21.18
2023-05-25T03:26:46.882Z,21.17
2023-05-25T03:29:14.913Z,21.12
2023-05-25T03:31:42.140Z,21.16
2023-05-25T03:34:09.191Z,21.11
2023-05-25T03:36:39.198Z,21.10
2023-05-25T03:39:10.160Z,21.18
2023-05-25T03:41:37.198Z,21.09
2023-05-25T03:44:04.375Z,20.99
2023-05-25T03:46:33.321Z,21.07
2023-05-25T03:49:00.490Z,21.00
2023-05-25T03:51:29.399Z,21.02
2023-05-25T03:53:56.465Z,21.03
2023-05-25T03:56:24.468Z,20.93
2023-05-25T03:58:54.377Z,20.95
2023-05-25T04:01:26.378Z,20.96
2023-05-25T04:03:53.813Z,20.81
2023-05-25T04:06:21.918Z,20.85
2023-05-25T04:08:49.605Z,20.94
2023-05-25T04:11:16.761Z,21.01
2023-05-25T04:13:44.228Z,21.17
2023-05-25T04:16:13.257Z,21.13
2023-05-25T04:18:41.000Z,21.17
2023-05-25T04:21:08.156Z,21.11
2023-05-25T04:23:35.795Z,21.51
2023-05-25T04:26:08.559Z,21.54
2023-05-25T04:28:35.957Z,21.27
2023-05-25T04:31:14.112Z,21.39
2023-05-25T04:33:49.959Z,21.43
2023-05-25T04:36:32.615Z,21.08
2023-05-25T04:39:04.647Z,21.43
2023-05-25T04:41:36.576Z,21.50
2023-05-25T04:44:10.650Z,21.67
2023-05-25T04:46:47.807Z,20.90
2023-05-25T04:49:23.582Z,20.83
2023-05-25T04:51:51.535Z,21.17
2023-05-25T04:54:19.422Z,21.15
2023-05-25T04:56:46.614Z,21.30
2023-05-25T04:59:14.265Z,20.98
2023-05-25T05:01:42.241Z,21.04
2023-05-25T05:04:12.992Z,21.01
2023-05-25T05:06:40.782Z,20.78
2023-05-25T05:09:09.590Z,21.05
2023-05-25T05:11:36.592Z,20.83
2023-05-25T05:14:05.166Z,20.95
2023-05-25T05:16:35.578Z,20.82
2023-05-25T05:19:02.918Z,21.10
2023-05-25T05:21:30.711Z,21.14
2023-05-25T05:23:57.825Z,20.90
2023-05-25T05:26:25.110Z,21.17
2023-05-25T05:28:53.180Z,21.07
2023-05-25T05:31:22.031Z,20.88
2023-05-25T05:33:49.104Z,20.60
2023-05-25T05:36:19.492Z,21.17
2023-05-25T05:38:47.083Z,20.70
2023-05-25T05:41:14.614Z,20.89
2023-05-25T05:43:46.691Z,21.18
2023-05-25T05:46:13.978Z,21.03
2023-05-25T05:48:41.911Z,21.01
2023-05-25T05:51:10.217Z,20.83
2023-05-25T05:53:37.610Z,21.08
2023-05-25T05:56:05.159Z,21.32
2023-05-25T05:58:32.670Z,21.09
2023-05-25T06:01:00.412Z,21.03
2023-05-25T06:03:28.846Z,20.85
2023-05-25T06:05:56.016Z,20.88
2023-05-25T06:08:25.531Z,20.07
2023-05-25T06:10:52.537Z,19.01
2023-05-25T06:13:20.115Z,20.01
2023-05-25T06:15:48.083Z,20.13
2023-05-25T06:18:20.735Z,20.12
2023-05-25T06:20:47.949Z,19.99
2023-05-25T06:23:15.855Z,20.69
2023-05-25T06:25:43.769Z,21.14
2023-05-25T06:28:11.128Z,21.03
2023-05-25T06:30:38.156Z,20.76
2023-05-25T06:33:06.436Z,21.17
2023-05-25T06:35:33.680Z,20.97
2023-05-25T06:38:00.827Z,21.15
2023-05-25T06:40:28.236Z,21.17
2023-05-25T06:42:55.823Z,20.69
2023-05-25T06:45:52.328Z,21.18
2023-05-25T06:48:20.030Z,21.06
2023-05-25T06:50:47.380Z,20.85
2023-05-25T06:53:14.765Z,21.49
2023-05-25T06:55:42.124Z,20.75
2023-05-25T06:58:09.651Z,20.90
2023-05-25T07:00:37.340Z,21.04
2023-05-25T07:03:07.172Z,21.38
2023-05-25T07:05:34.244Z,21.07
2023-05-25T07:08:01.430Z,21.02
2023-05-25T07:10:28.386Z,21.90
2023-05-25T07:12:55.681Z,21.45
2023-05-25T07:15:24.026Z,21.43
2023-05-25T07:17:51.625Z,21.78
2023-05-25T07:20:19.189Z,21.54
2023-05-25T07:22:47.602Z,21.82
2023-05-25T07:25:15.488Z,21.43
2023-05-25T07:27:42.737Z,21.32
2023-05-25T07:30:10.894Z,21.77
2023-05-25T07:32:38.607Z,21.85
2023-05-25T07:35:06.416Z,22.36
2023-05-25T07:37:33.906Z,22.54
2023-05-25T07:40:01.737Z,22.07
2023-05-25T07:42:34.275Z,21.72
2023-05-25T07:45:02.675Z,22.14
2023-05-25T07:47:29.883Z,22.03
2023-05-25T07:49:57.059Z,22.61
2023-05-25T07:52:24.279Z,22.34
2023-05-25T07:54:59.243Z,22.09
2023-05-25T07:57:26.973Z,22.26
2023-05-25T07:59:54.719Z,22.18
2023-05-25T08:02:22.213Z,22.40
2023-05-25T08:04:52.249Z,21.72
2023-05-25T08:07:24.938Z,21.93
2023-05-25T08:09:52.560Z,21.96
2023-05-25T08:14:54.246Z,22.08
2023-05-25T08:17:22.247Z,22.52
2023-05-25T08:19:49.347Z,22.10
2023-05-25T08:22:16.943Z,22.58
2023-05-25T08:24:44.187Z,22.03
2023-05-25T08:27:11.509Z,23.31
2023-05-25T08:29:38.906Z,22.64
2023-05-25T08:32:14.244Z,23.39
2023-05-25T08:34:44.055Z,22.89
2023-05-25T08:37:11.474Z,21.96
2023-05-25T08:39:41.122Z,22.64
2023-05-25T08:42:17.353Z,22.86
2023-05-25T08:44:44.653Z,22.68
2023-05-25T08:47:14.647Z,23.23
2023-05-25T08:49:44.960Z,22.03
2023-05-25T08:52:15.559Z,22.34
2023-05-25T08:54:47.302Z,23.25
2023-05-25T08:57:21.342Z,23.58
2023-05-25T09:00:17.409Z,23.32
2023-05-25T09:03:14.042Z,22.72
2023-05-25T09:05:47.108Z,23.33
2023-05-25T09:08:14.970Z,23.40
2023-05-25T09:10:43.353Z,23.16
2023-05-25T09:13:21.402Z,22.94
2023-05-25T09:15:54.631Z,24.14
2023-05-25T09:18:22.031Z,23.34
2023-05-25T09:20:52.436Z,23.49
2023-05-25T09:23:19.969Z,24.07
2023-05-25T09:25:48.008Z,23.31
2023-05-25T09:30:45.876Z,23.71
2023-05-25T09:33:15.203Z,23.62
2023-05-25T09:35:45.638Z,24.09
2023-05-25T09:38:17.306Z,23.96
2023-05-25T09:40:45.159Z,23.75
2023-05-25T09:43:21.821Z,23.91
2023-05-25T09:45:53.466Z,23.80
2023-05-25T09:48:22.007Z,24.23
2023-05-25T09:50:50.137Z,24.23
2023-05-25T09:53:17.378Z,24.12
2023-05-25T09:58:18.490Z,24.25
2023-05-25T10:00:46.404Z,24.56
2023-05-25T10:03:15.518Z,23.18
2023-05-25T10:05:42.834Z,24.02
2023-05-25T10:08:11.737Z,23.43
2023-05-25T10:10:40.038Z,24.38
2023-05-25T10:13:09.552Z,23.92
2023-05-25T10:15:42.683Z,23.60
2023-05-25T10:18:12.873Z,23.04
2023-05-25T10:20:40.403Z,23.06
2023-05-25T10:23:13.377Z,23.95
2023-05-25T10:25:48.932Z,24.65
2023-05-25T10:28:37.140Z,24.73
2023-05-25T10:31:05.646Z,25.05
2023-05-25T10:33:33.903Z,24.31
2023-05-25T10:38:37.572Z,25.07
2023-05-25T10:41:05.999Z,25.46
2023-05-25T10:43:33.494Z,25.36
2023-05-25T10:46:01.310Z,24.83
2023-05-25T10:48:46.700Z,25.09
2023-05-25T10:51:14.301Z,25.79
2023-05-25T10:53:47.348Z,25.96
2023-05-25T10:56:14.717Z,26.19
2023-05-25T10:58:44.383Z,26.57
2023-05-25T11:01:14.620Z,26.84
2023-05-25T11:03:45.460Z,28.28
2023-05-25T11:06:18.199Z,28.80
2023-05-25T11:08:59.464Z,27.19
2023-05-25T11:11:45.486Z,26.12
2023-05-25T11:14:29.909Z,27.22
2023-05-25T11:17:12.978Z,27.56
2023-05-25T11:19:54.271Z,26.32
2023-05-25T11:22:35.715Z,26.22
2023-05-25T11:25:23.920Z,27.93
2023-05-25T11:27:54.300Z,27.23
2023-05-25T11:30:28.324Z,25.96
2023-05-25T11:32:59.755Z,27.63
2023-05-25T11:35:27.148Z,26.80
2023-05-25T11:37:55.105Z,25.91
2023-05-25T11:40:25.182Z,26.88
2023-05-25T11:42:53.816Z,25.26
2023-05-25T11:45:23.237Z,26.66
2023-05-25T11:47:50.356Z,25.60
2023-05-25T11:50:17.903Z,25.77
2023-05-25T11:52:45.042Z,25.67
2023-05-25T11:55:16.720Z,25.62
2023-05-25T11:57:43.804Z,25.65
2023-05-25T12:00:12.063Z,26.39
2023-05-25T12:02:43.737Z,26.55
2023-05-25T12:05:11.992Z,26.61
2023-05-25T12:07:46.992Z,26.44
2023-05-25T12:10:16.776Z,26.87
2023-05-25T12:12:51.902Z,26.59
2023-05-25T12:15:23.455Z,27.45
2023-05-25T12:17:52.326Z,25.33
2023-05-25T12:20:20.153Z,24.87
2023-05-25T12:22:48.047Z,25.98
2023-05-25T12:25:19.663Z,26.54
2023-05-25T12:27:46.738Z,26.95
2023-05-25T12:30:13.833Z,26.96
2023-05-25T12:33:04.144Z,26.59
2023-05-25T12:35:48.632Z,26.91
2023-05-25T12:38:18.576Z,25.89
2023-05-25T12:40:45.828Z,26.12
2023-05-25T12:43:14.387Z,27.49
2023-05-25T12:45:44.680Z,27.30
2023-05-25T12:48:12.276Z,26.49
2023-05-25T12:50:39.302Z,27.19
2023-05-25T12:53:06.619Z,27.07
2023-05-25T12:55:36.296Z,26.67
2023-05-25T12:58:07.850Z,27.03
2023-05-25T13:00:41.126Z,30.38
2023-05-25T13:03:08.441Z,30.71
2023-05-25T13:05:37.819Z,28.64
2023-05-25T13:08:06.874Z,28.60
2023-05-25T13:10:36.958Z,29.16
2023-05-25T13:13:04.830Z,29.02
2023-05-25T13:15:32.010Z,27.86
2023-05-25T13:17:59.124Z,28.64
2023-05-25T13:20:27.765Z,29.63
2023-05-25T13:22:58.284Z,29.38
2023-05-25T13:25:28.256Z,27.94
2023-05-25T13:27:58.038Z,28.50
2023-05-25T13:30:26.357Z,28.35
2023-05-25T13:32:53.486Z,28.81
2023-05-25T13:35:37.604Z,29.93
2023-05-25T13:38:05.138Z,31.19
2023-05-25T13:40:32.286Z,30.88
2023-05-25T13:42:59.601Z,30.95
2023-05-25T13:45:26.883Z,29.32
2023-05-25T13:47:54.052Z,30.89
2023-05-25T13:50:21.277Z,28.19
2023-05-25T13:52:49.144Z,28.32
2023-05-25T13:55:16.362Z,30.04
2023-05-25T13:57:43.321Z,27.89
2023-05-25T14:00:10.838Z,29.06
2023-05-25T14:02:37.942Z,29.23
2023-05-25T14:05:05.561Z,29.60
2023-05-25T14:07:33.143Z,30.03
2023-05-25T14:10:00.647Z,28.65
2023-05-25T14:12:27.931Z,29.38
2023-05-25T14:14:54.994Z,29.64
2023-05-25T14:17:21.986Z,29.71
2023-05-25T14:19:49.172Z,29.21
2023-05-25T14:22:16.191Z,29.42
2023-05-25T14:24:43.456Z,28.53
2023-05-25T14:27:10.847Z,27.16
2023-05-25T14:29:38.272Z,27.17
2023-05-25T14:32:05.686Z,26.90
2023-05-25T14:34:33.004Z,27.29
2023-05-25T14:37:00.054Z,28.00
2023-05-25T14:39:27.313Z,28.33
2023-05-25T14:41:54.512Z,28.41
2023-05-25T14:44:21.615Z,28.50
2023-05-25T14:46:48.672Z,28.12
2023-05-25T14:49:16.999Z,28.98
2023-05-25T14:51:44.162Z,28.12
2023-05-25T14:54:13.790Z,28.02
2023-05-25T14:56:41.115Z,29.40
2023-05-25T14:59:08.311Z,28.93
2023-05-25T15:01:36.031Z,28.25
2023-05-25T15:04:03.697Z,29.04
2023-05-25T15:06:32.080Z,28.90
2023-05-25T15:08:59.340Z,28.45
2023-05-25T15:11:29.570Z,28.81
2023-05-25T15:13:58.657Z,29.19
2023-05-25T15:16:25.709Z,29.46
2023-05-25T15:18:52.835Z,29.33
2023-05-25T15:21:20.068Z,28.62
2023-05-25T15:23:47.093Z,27.85
2023-05-25T15:26:14.233Z,29.25
2023-05-25T15:28:41.200Z,28.06
2023-05-25T15:31:08.578Z,27.62
2023-05-25T15:33:52.099Z,28.26
2023-05-25T15:36:23.755Z,28.62
2023-05-25T15:38:50.985Z,28.12
2023-05-25T15:41:18.420Z,27.83
2023-05-25T15:43:57.703Z,28.76
2023-05-25T15:46:25.192Z,29.06
2023-05-25T15:48:52.562Z,28.72
2023-05-25T15:51:19.686Z,28.66
2023-05-25T15:53:47.509Z,28.69
2023-05-25T15:56:14.946Z,28.90
2023-05-25T15:58:42.161Z,28.97
2023-05-25T16:01:10.744Z,28.29
2023-05-25T16:03:39.626Z,27.39
2023-05-25T16:06:07.981Z,27.98
2023-05-25T16:08:35.147Z,28.18
2023-05-25T16:11:02.125Z,28.14
2023-05-25T16:13:29.167Z,28.07
2023-05-25T16:15:56.299Z,28.07
2023-05-25T16:18:23.385Z,27.83
2023-05-25T16:20:56.071Z,28.36
2023-05-25T16:23:24.158Z,28.12
2023-05-25T16:25:51.733Z,27.94
2023-05-25T16:28:18.701Z,27.42
2023-05-25T16:30:45.727Z,28.07
2023-05-25T16:33:12.877Z,27.85
2023-05-25T16:35:40.226Z,28.50
2023-05-25T16:38:07.203Z,28.63
2023-05-25T16:40:34.326Z,28.38
2023-05-25T16:43:01.309Z,28.47
2023-05-25T16:45:28.483Z,28.72
2023-05-25T16:47:55.915Z,29.03
2023-05-25T16:50:23.494Z,28.06
2023-05-25T16:52:50.606Z,28.69
2023-05-25T16:55:17.726Z,28.61
2023-05-25T16:57:44.707Z,27.97
2023-05-25T17:00:12.570Z,28.77
2023-05-25T17:02:39.717Z,28.28
2023-05-25T17:05:08.489Z,28.10
2023-05-25T17:07:36.379Z,28.14
2023-05-25T17:10:03.689Z,28.20
2023-05-25T17:12:30.909Z,28.33
2023-05-25T17:14:57.901Z,27.85
2023-05-25T17:17:28.058Z,27.55
2023-05-25T17:19:55.544Z,28.30
2023-05-25T17:22:23.478Z,28.84
2023-05-25T17:24:50.627Z,28.85
2023-05-25T17:27:17.634Z,28.50
2023-05-25T17:29:44.676Z,27.90
2023-05-25T17:32:11.981Z,28.36
2023-05-25T17:34:39.292Z,28.16
2023-05-25T17:37:06.527Z,28.11
2023-05-25T17:39:36.684Z,28.29
2023-05-25T17:42:03.821Z,28.10
2023-05-25T17:44:30.857Z,28.85
2023-05-25T17:46:58.036Z,28.92
2023-05-25T17:49:25.305Z,28.45
2023-05-25T17:51:52.903Z,28.62
2023-05-25T17:54:25.776Z,28.00
2023-05-25T17:56:53.670Z,27.69
2023-05-25T17:59:20.923Z,28.40
2023-05-25T18:01:48.074Z,28.59
2023-05-25T18:04:15.503Z,28.67
2023-05-25T18:06:42.839Z,28.11
2023-05-25T18:09:09.924Z,27.89
2023-05-25T18:11:37.075Z,27.84
2023-05-25T18:14:07.820Z,27.90
2023-05-25T18:16:39.513Z,28.01
2023-05-25T18:19:07.289Z,28.20
2023-05-25T18:21:34.428Z,27.93
2023-05-25T18:24:01.460Z,28.08
2023-05-25T18:26:28.577Z,28.23
2023-05-25T18:28:55.880Z,27.58
2023-05-25T18:31:23.033Z,27.88
2023-05-25T18:33:50.146Z,28.22
2023-05-25T18:36:17.347Z,28.47
2023-05-25T18:38:44.348Z,28.46
2023-05-25T18:41:11.590Z,28.43
2023-05-25T18:43:38.821Z,28.68
2023-05-25T18:46:05.935Z,28.58
2023-05-25T18:48:33.005Z,28.72
2023-05-25T18:51:00.106Z,28.77
2023-05-25T18:53:27.177Z,28.83
2023-05-25T18:55:54.851Z,29.10
2023-05-25T18:58:22.011Z,28.92
2023-05-25T19:00:49.199Z,29.04
2023-05-25T19:03:16.362Z,29.14
2023-05-25T19:05:43.710Z,29.14
2023-05-25T19:08:10.819Z,29.19
2023-05-25T19:10:37.902Z,29.02
2023-05-25T19:13:04.912Z,28.97
2023-05-25T19:15:32.192Z,28.82
2023-05-25T19:17:59.383Z,28.69
2023-05-25T19:20:28.100Z,28.65
2023-05-25T19:22:55.328Z,28.53
2023-05-25T19:25:22.684Z,28.40
2023-05-25T19:27:50.002Z,28.35
2023-05-25T19:30:17.131Z,28.23
2023-05-25T19:32:44.270Z,28.29
2023-05-25T19:35:11.629Z,28.09
2023-05-25T19:37:38.767Z,28.25
2023-05-25T19:40:08.850Z,28.18
2023-05-25T19:42:36.037Z,28.08
2023-05-25T19:45:03.322Z,27.99
2023-05-25T19:47:31.432Z,28.00
2023-05-25T19:49:58.671Z,27.64
2023-05-25T19:52:25.709Z,27.71
2023-05-25T19:54:52.993Z,27.72
2023-05-25T19:57:21.026Z,27.50
2023-05-25T19:59:48.100Z,27.55
2023-05-25T20:02:15.078Z,27.64
2023-05-25T20:04:42.103Z,27.55
2023-05-25T20:07:09.190Z,27.50
2023-05-25T20:09:38.634Z,27.41
2023-05-25T20:12:06.500Z,27.55
2023-05-25T20:14:36.364Z,27.58
2023-05-25T20:17:04.043Z,27.53
2023-05-25T20:19:31.170Z,27.30
2023-05-25T20:22:00.149Z,27.49
2023-05-25T20:24:27.703Z,27.39
2023-05-25T20:26:57.000Z,27.29
2023-05-25T20:29:24.431Z,27.35
2023-05-25T20:31:52.807Z,27.46
2023-05-25T20:34:20.103Z,27.30
2023-05-25T20:36:47.215Z,27.07
2023-05-25T20:39:14.323Z,26.96
2023-05-25T20:41:41.702Z,27.10
2023-05-25T20:44:10.197Z,26.92
2023-05-25T20:46:37.395Z,27.22
2023-05-25T20:49:04.617Z,27.08
2023-05-25T20:51:32.631Z,27.15
2023-05-25T20:53:59.830Z,27.02
2023-05-25T20:56:27.243Z,26.96
2023-05-25T20:58:54.210Z,27.12
2023-05-25T21:01:21.538Z,27.06
2023-05-25T21:03:48.695Z,26.75
2023-05-25T21:06:16.094Z,26.71
2023-05-25T21:08:43.388Z,26.88
2023-05-25T21:11:10.781Z,26.91
2023-05-25T21:13:37.775Z,26.84
2023-05-25T21:16:04.954Z,26.91
2023-05-25T21:18:32.457Z,27.03
2023-05-25T21:20:59.612Z,26.99
2023-05-25T21:23:28.615Z,27.08
2023-05-25T21:25:56.018Z,27.07
2023-05-25T21:28:23.950Z,27.06
2023-05-25T21:30:50.965Z,27.09
2023-05-25T21:33:17.984Z,26.77
2023-05-25T21:35:45.145Z,26.76
2023-05-25T21:38:12.454Z,26.77
2023-05-25T21:40:39.736Z,26.26
2023-05-25T21:43:09.138Z,26.76
2023-05-25T21:45:36.263Z,26.20
2023-05-25T21:48:04.689Z,26.78
2023-05-25T21:50:31.782Z,26.64
2023-05-25T21:52:58.980Z,26.73
2023-05-25T21:55:26.027Z,26.77
2023-05-25T21:57:53.121Z,26.71
2023-05-25T22:00:21.372Z,26.74
2023-05-25T22:02:48.710Z,26.54
2023-05-25T22:05:15.906Z,26.60
2023-05-25T22:07:43.066Z,26.47
2023-05-25T22:10:10.312Z,26.54
2023-05-25T22:12:37.362Z,26.46
2023-05-25T22:15:06.111Z,26.57
2023-05-25T22:17:33.354Z,26.20
2023-05-25T22:20:07.911Z,26.23
2023-05-25T22:22:37.456Z,26.24
2023-05-25T22:25:04.964Z,26.31
2023-05-25T22:27:32.916Z,26.33
2023-05-25T22:29:59.930Z,26.26
2023-05-25T22:32:27.438Z,26.18
2023-05-25T22:34:54.630Z,26.04
2023-05-25T22:37:21.747Z,26.05
2023-05-25T22:39:49.489Z,26.12
2023-05-25T22:42:16.679Z,26.02
2023-05-25T22:44:43.680Z,25.82
2023-05-25T22:47:10.742Z,25.81
2023-05-25T22:49:42.820Z,25.90
2023-05-25T22:52:12.217Z,25.94
2023-05-25T22:54:39.916Z,26.47
2023-05-25T22:57:09.370Z,26.57
2023-05-25T22:59:36.622Z,26.07
2023-05-25T23:02:04.043Z,25.79
2023-05-25T23:04:31.326Z,25.90
2023-05-25T23:06:58.575Z,26.47
2023-05-25T23:09:25.550Z,25.95
2023-05-25T23:11:52.521Z,25.74
2023-05-25T23:14:20.718Z,25.79
2023-05-25T23:16:50.403Z,25.86
2023-05-25T23:19:17.982Z,25.85
2023-05-25T23:21:45.024Z,25.65
2023-05-25T23:24:12.094Z,25.78
2023-05-25T23:26:39.232Z,25.82
2023-05-25T23:29:06.310Z,25.67
2023-05-25T23:31:33.546Z,25.51
2023-05-25T23:34:00.526Z,25.67
2023-05-25T23:36:28.209Z,25.76
2023-05-25T23:38:55.692Z,25.60
2023-05-25T23:41:23.178Z,25.71
2023-05-25T23:43:50.413Z,25.65
2023-05-25T23:46:17.608Z,25.56
2023-05-25T23:48:47.787Z,25.65
2023-05-25T23:51:14.748Z,25.33
2023-05-25T23:53:41.821Z,25.62
2023-05-25T23:56:08.929Z,25.52
2023-05-25T23:58:36.100Z,25.63
